createdAt,value
2018-05-27T00:01:12.396Z,43.61
2018-05-27T00:03:43.795Z,43.65
2018-05-27T00:06:14.884Z,43.80
2018-05-27T00:08:46.006Z,43.83
2018-05-27T00:11:17.211Z,43.92
2018-05-27T00:13:47.955Z,44.08
2018-05-27T00:16:19.901Z,44.14
2018-05-27T00:18:50.561Z,43.78
2018-05-27T00:21:22.363Z,43.62
2018-05-27T00:23:53.459Z,43.56
2018-05-27T00:26:26.636Z,44.20
2018-05-27T00:28:57.608Z,45.08
2018-05-27T00:31:28.594Z,44.74
2018-05-27T00:34:05.920Z,44.20
2018-05-27T00:36:38.718Z,44.10
2018-05-27T00:39:09.430Z,44.03
2018-05-27T00:41:39.847Z,44.04
2018-05-27T00:44:12.602Z,43.88
2018-05-27T00:46:44.287Z,43.86
2018-05-27T00:49:14.880Z,44.11
2018-05-27T00:51:46.135Z,44.18
2018-05-27T00:54:16.856Z,44.48
2018-05-27T00:56:48.013Z,44.57
2018-05-27T00:59:19.111Z,44.74
2018-05-27T01:01:49.983Z,44.65
2018-05-27T01:04:20.781Z,44.46
2018-05-27T01:06:52.770Z,44.28
2018-05-27T01:09:23.184Z,44.26
2018-05-27T01:12:00.192Z,44.26
2018-05-27T01:14:35.750Z,44.20
2018-05-27T01:17:09.540Z,43.97
2018-05-27T01:19:40.078Z,43.88
2018-05-27T01:22:10.491Z,43.86
2018-05-27T01:24:41.346Z,44.08
2018-05-27T01:27:11.770Z,44.14
2018-05-27T01:29:44.103Z,44.28
2018-05-27T01:32:15.883Z,44.49
2018-05-27T01:37:42.473Z,45.36
2018-05-27T01:40:13.459Z,45.65
2018-05-27T01:42:44.432Z,45.25
2018-05-27T01:45:17.419Z,45.03
2018-05-27T01:47:47.818Z,45.38
2018-05-27T01:50:19.735Z,45.46
2018-05-27T01:53:03.531Z,45.22
2018-05-27T01:55:35.220Z,45.06
2018-05-27T01:58:06.423Z,45.51
2018-05-27T02:00:37.294Z,45.45
2018-05-27T02:03:09.425Z,45.50
2018-05-27T02:05:40.888Z,45.66
2018-05-27T02:08:14.034Z,46.09
2018-05-27T02:10:45.539Z,46.50
2018-05-27T02:13:17.948Z,46.65
2018-05-27T02:15:52.077Z,46.84
2018-05-27T02:18:24.409Z,47.35
2018-05-27T02:20:58.610Z,47.62
2018-05-27T02:23:34.290Z,47.90
2018-05-27T02:26:08.054Z,47.59
2018-05-27T02:28:46.205Z,47.16
2018-05-27T02:31:21.595Z,47.22
2018-05-27T02:33:54.395Z,47.11
2018-05-27T02:36:25.413Z,47.68
2018-05-27T02:39:02.318Z,48.04
2018-05-27T02:41:35.916Z,48.17
2018-05-27T02:44:08.894Z,47.87
2018-05-27T02:46:48.973Z,47.64
2018-05-27T02:49:27.472Z,47.31
2018-05-27T02:51:59.338Z,47.10
2018-05-27T02:54:37.050Z,46.86
2018-05-27T02:57:10.584Z,46.82
2018-05-27T02:59:45.750Z,46.85
2018-05-27T03:02:16.920Z,47.39
2018-05-27T03:04:47.817Z,47.68
2018-05-27T03:07:18.311Z,48.09
2018-05-27T03:09:48.873Z,48.57
2018-05-27T03:12:21.999Z,49.19
2018-05-27T03:14:54.169Z,49.54
2018-05-27T03:17:27.542Z,49.41
2018-05-27T03:19:58.312Z,49.78
2018-05-27T03:22:32.722Z,49.56
2018-05-27T03:25:06.070Z,49.13
2018-05-27T03:27:37.449Z,49.32
2018-05-27T03:30:13.714Z,49.81
2018-05-27T03:32:45.271Z,50.16
2018-05-27T03:35:16.775Z,50.50
2018-05-27T03:37:47.492Z,50.23
2018-05-27T03:40:28.136Z,50.34
2018-05-27T03:42:59.988Z,50.01
2018-05-27T03:45:31.889Z,49.75
2018-05-27T03:48:08.607Z,49.88
2018-05-27T03:50:44.727Z,49.80
2018-05-27T03:53:15.298Z,49.80
2018-05-27T03:55:45.922Z,49.79
2018-05-27T03:58:18.474Z,49.74
2018-05-27T04:00:49.945Z,49.48
2018-05-27T04:03:21.132Z,49.51
2018-05-27T04:08:05.780Z,49.55
2018-05-27T04:10:42.449Z,49.74
2018-05-27T04:13:16.054Z,49.75
2018-05-27T04:15:47.194Z,49.35
2018-05-27T04:18:18.308Z,49.20
2018-05-27T04:20:49.600Z,49.02
2018-05-27T04:23:20.843Z,48.55
2018-05-27T04:25:51.471Z,48.43
2018-05-27T04:28:22.456Z,48.16
2018-05-27T04:30:54.928Z,47.37
2018-05-27T04:33:26.529Z,46.69
2018-05-27T04:35:58.109Z,46.25
2018-05-27T04:38:28.543Z,45.76
2018-05-27T04:40:59.717Z,45.27
2018-05-27T04:43:32.090Z,44.71
2018-05-27T04:46:07.033Z,44.70
2018-05-27T04:48:37.999Z,44.97
2018-05-27T04:51:08.405Z,45.32
2018-05-27T04:53:39.360Z,45.70
2018-05-27T04:56:10.108Z,45.52
2018-05-27T04:58:56.734Z,45.59
2018-05-27T05:01:27.394Z,45.47
2018-05-27T05:03:57.900Z,45.62
2018-05-27T05:06:28.190Z,45.50
2018-05-27T05:08:58.619Z,45.26
2018-05-27T05:11:29.036Z,45.03
2018-05-27T05:13:59.921Z,44.08
2018-05-27T05:16:31.500Z,43.25
2018-05-27T05:19:03.665Z,42.24
2018-05-27T05:21:35.428Z,41.81
2018-05-27T05:24:18.700Z,41.53
2018-05-27T05:26:49.465Z,41.23
2018-05-27T05:29:20.506Z,41.71
2018-05-27T05:31:52.290Z,41.24
2018-05-27T05:34:23.475Z,42.11
2018-05-27T05:36:55.137Z,42.30
2018-05-27T05:39:26.287Z,42.91
2018-05-27T05:41:57.971Z,43.22
2018-05-27T05:44:28.670Z,43.38
2018-05-27T05:46:59.742Z,43.48
2018-05-27T05:49:30.456Z,43.18
2018-05-27T05:52:18.496Z,43.40
2018-05-27T05:54:49.293Z,42.50
2018-05-27T05:57:19.920Z,42.03
2018-05-27T05:59:50.597Z,41.05
2018-05-27T06:02:22.805Z,40.55
2018-05-27T06:05:07.710Z,40.51
2018-05-27T06:07:39.795Z,39.54
2018-05-27T06:10:10.829Z,39.17
2018-05-27T06:12:41.612Z,38.11
2018-05-27T06:15:21.624Z,38.09
2018-05-27T06:17:53.905Z,37.05
2018-05-27T06:20:24.406Z,36.63
2018-05-27T06:22:58.778Z,36.90
2018-05-27T06:25:29.124Z,36.67
2018-05-27T06:27:59.651Z,35.97
2018-05-27T06:30:34.575Z,34.61
2018-05-27T06:33:05.774Z,34.23
2018-05-27T06:35:37.881Z,34.49
2018-05-27T06:38:14.894Z,34.86
2018-05-27T06:40:45.448Z,33.72
2018-05-27T06:43:16.287Z,32.88
2018-05-27T06:45:49.383Z,33.49
2018-05-27T06:48:19.735Z,32.93
2018-05-27T06:50:57.015Z,32.14
2018-05-27T06:53:29.666Z,31.69
2018-05-27T06:56:04.444Z,31.67
2018-05-27T06:58:35.678Z,30.91
2018-05-27T07:01:06.669Z,31.21
2018-05-27T07:03:49.101Z,30.60
2018-05-27T07:06:19.675Z,30.51
2018-05-27T07:08:50.958Z,29.17
2018-05-27T07:11:24.837Z,27.83
2018-05-27T07:13:55.779Z,26.87
2018-05-27T07:16:27.377Z,27.00
2018-05-27T07:19:07.049Z,28.11
2018-05-27T07:21:39.479Z,29.85
2018-05-27T07:24:10.863Z,29.27
2018-05-27T07:26:42.075Z,30.02
2018-05-27T07:29:13.654Z,29.85
2018-05-27T07:31:44.819Z,29.19
2018-05-27T07:34:15.682Z,29.75
2018-05-27T07:36:46.893Z,28.76
2018-05-27T07:39:18.280Z,28.84
2018-05-27T07:41:48.818Z,28.76
2018-05-27T07:44:26.014Z,28.28
2018-05-27T07:49:39.737Z,27.68
2018-05-27T07:52:10.534Z,27.69
2018-05-27T07:54:44.577Z,27.41
2018-05-27T07:57:15.722Z,26.57
2018-05-27T07:59:49.518Z,27.16
2018-05-27T08:02:20.911Z,27.14
2018-05-27T08:04:52.172Z,28.13
2018-05-27T08:07:24.226Z,28.37
2018-05-27T08:09:55.144Z,27.44
2018-05-27T08:12:26.779Z,27.72
2018-05-27T08:14:58.819Z,27.99
2018-05-27T08:17:29.703Z,27.20
2018-05-27T08:20:00.349Z,27.45
2018-05-27T08:22:31.786Z,26.83
2018-05-27T08:25:03.067Z,26.30
2018-05-27T08:27:33.978Z,26.88
2018-05-27T08:30:07.474Z,26.97
2018-05-27T08:32:38.726Z,27.19
2018-05-27T08:35:10.715Z,27.35
2018-05-27T08:37:41.444Z,26.99
2018-05-27T08:40:15.940Z,26.59
2018-05-27T08:42:47.313Z,26.67
2018-05-27T08:45:19.914Z,26.56
2018-05-27T08:47:50.705Z,26.97
2018-05-27T08:50:21.074Z,27.61
2018-05-27T08:52:52.648Z,27.89
2018-05-27T08:55:24.460Z,27.48
2018-05-27T08:57:55.734Z,27.02
2018-05-27T09:00:27.618Z,26.64
2018-05-27T09:03:05.973Z,26.57
2018-05-27T09:05:36.337Z,27.50
2018-05-27T09:08:11.767Z,27.74
2018-05-27T09:10:44.071Z,27.47
2018-05-27T09:13:14.543Z,27.04
2018-05-27T09:15:56.707Z,26.82
2018-05-27T09:18:28.286Z,26.30
2018-05-27T09:21:02.284Z,26.98
2018-05-27T09:23:33.374Z,26.67
2018-05-27T09:26:08.381Z,26.03
2018-05-27T09:28:55.835Z,25.65
2018-05-27T09:31:29.155Z,25.51
2018-05-27T09:34:02.396Z,25.68
2018-05-27T09:36:36.356Z,24.98
2018-05-27T09:39:12.714Z,24.31
2018-05-27T09:41:43.385Z,24.49
2018-05-27T09:44:17.620Z,24.06
2018-05-27T09:46:49.368Z,24.21
2018-05-27T09:49:24.700Z,24.74
2018-05-27T09:51:56.531Z,24.63
2018-05-27T09:54:28.763Z,24.46
2018-05-27T09:56:59.767Z,23.72
2018-05-27T09:59:31.953Z,24.41
2018-05-27T10:02:14.199Z,23.82
2018-05-27T10:04:57.140Z,24.26
2018-05-27T10:07:28.834Z,24.15
2018-05-27T10:10:07.115Z,23.79
2018-05-27T10:12:43.115Z,23.47
2018-05-27T10:15:26.017Z,23.81
2018-05-27T10:18:01.886Z,24.42
2018-05-27T10:20:35.860Z,24.06
2018-05-27T10:23:12.039Z,24.00
2018-05-27T10:25:46.223Z,24.58
2018-05-27T10:28:20.783Z,25.48
2018-05-27T10:33:28.993Z,24.84
2018-05-27T10:36:00.635Z,25.47
2018-05-27T10:38:44.510Z,24.19
2018-05-27T10:41:23.190Z,23.66
2018-05-27T10:43:56.916Z,22.69
2018-05-27T10:46:33.977Z,21.60
2018-05-27T10:49:05.868Z,22.11
2018-05-27T10:51:37.698Z,23.41
2018-05-27T10:54:08.754Z,23.39
2018-05-27T10:56:40.267Z,23.54
2018-05-27T10:59:10.687Z,23.46
2018-05-27T11:01:48.141Z,23.09
2018-05-27T11:04:18.834Z,23.37
2018-05-27T11:06:50.294Z,23.88
2018-05-27T11:09:21.266Z,23.93
2018-05-27T11:11:52.218Z,22.65
2018-05-27T11:14:24.851Z,21.79
2018-05-27T11:16:55.495Z,22.26
2018-05-27T11:19:26.530Z,23.42
2018-05-27T11:21:57.979Z,23.12
2018-05-27T11:24:29.205Z,22.46
2018-05-27T11:26:59.847Z,23.12
2018-05-27T11:29:31.996Z,26.19
2018-05-27T11:32:04.880Z,28.48
2018-05-27T11:34:36.445Z,28.59
2018-05-27T11:37:09.837Z,27.55
2018-05-27T11:39:47.237Z,27.50
2018-05-27T11:42:18.196Z,26.67
2018-05-27T11:44:59.581Z,27.07
2018-05-27T11:47:31.771Z,27.64
2018-05-27T11:50:14.807Z,28.84
2018-05-27T11:55:31.411Z,30.10
2018-05-27T11:58:03.053Z,30.01
2018-05-27T12:00:36.123Z,29.59
2018-05-27T12:03:08.652Z,30.21
2018-05-27T12:05:50.243Z,30.35
2018-05-27T12:08:25.063Z,31.03
2018-05-27T12:10:56.886Z,30.62
2018-05-27T12:13:27.465Z,30.45
2018-05-27T12:15:58.798Z,30.21
2018-05-27T12:18:30.584Z,30.33
2018-05-27T12:21:06.751Z,30.61
2018-05-27T12:23:37.890Z,30.05
2018-05-27T12:26:10.301Z,30.43
2018-05-27T12:28:42.675Z,30.70
2018-05-27T12:31:13.759Z,32.19
2018-05-27T12:33:49.985Z,32.12
2018-05-27T12:36:22.293Z,32.49
2018-05-27T12:38:54.779Z,33.54
2018-05-27T12:41:25.481Z,33.96
2018-05-27T12:43:57.598Z,33.85
2018-05-27T12:46:30.233Z,33.63
2018-05-27T12:49:07.953Z,33.66
2018-05-27T12:51:42.691Z,33.68
2018-05-27T12:54:15.485Z,34.24
2018-05-27T12:56:46.718Z,34.02
2018-05-27T12:59:23.354Z,33.67
2018-05-27T13:01:55.296Z,33.55
2018-05-27T13:04:30.563Z,33.22
2018-05-27T13:07:01.543Z,33.12
2018-05-27T13:09:33.287Z,33.28
2018-05-27T13:12:09.252Z,33.20
2018-05-27T13:14:46.838Z,33.16
2018-05-27T13:17:17.942Z,33.63
2018-05-27T13:19:53.995Z,33.72
2018-05-27T13:22:26.646Z,33.71
2018-05-27T13:24:57.921Z,33.91
2018-05-27T13:27:28.667Z,33.69
2018-05-27T13:30:00.579Z,34.00
2018-05-27T13:33:02.189Z,34.32
2018-05-27T13:35:40.189Z,33.61
2018-05-27T13:38:17.424Z,33.06
2018-05-27T13:40:55.528Z,31.78
2018-05-27T13:43:27.140Z,31.95
2018-05-27T13:45:57.984Z,31.57
2018-05-27T13:48:28.558Z,31.14
2018-05-27T13:51:00.933Z,31.38
2018-05-27T13:53:31.650Z,30.92
2018-05-27T14:03:46.349Z,29.53
2018-05-27T14:06:17.636Z,29.43
2018-05-27T14:08:48.758Z,29.35
2018-05-27T14:11:19.200Z,29.48
2018-05-27T14:13:49.605Z,29.57
2018-05-27T14:16:20.545Z,31.03
2018-05-27T14:18:53.232Z,31.54
2018-05-27T14:21:26.015Z,31.54
2018-05-27T14:23:59.439Z,31.66
2018-05-27T14:26:32.809Z,31.65
2018-05-27T14:29:03.935Z,31.32
2018-05-27T14:31:36.182Z,31.43
2018-05-27T14:34:07.789Z,30.94
2018-05-27T14:36:49.236Z,30.42
2018-05-27T14:39:19.880Z,30.30
2018-05-27T14:41:51.612Z,30.21
2018-05-27T14:44:22.587Z,30.36
2018-05-27T14:46:54.695Z,33.11
2018-05-27T14:49:28.918Z,35.70
2018-05-27T14:52:14.900Z,35.94
2018-05-27T14:54:53.241Z,36.18
2018-05-27T14:57:26.626Z,36.01
2018-05-27T14:59:59.467Z,36.16
2018-05-27T15:02:40.870Z,36.10
2018-05-27T15:06:14.069Z,35.76
2018-05-27T15:08:45.936Z,35.76
2018-05-27T15:11:16.610Z,35.75
2018-05-27T15:13:56.424Z,36.04
2018-05-27T15:16:27.595Z,36.54
2018-05-27T15:18:58.971Z,37.20
2018-05-27T15:24:25.497Z,38.16
2018-05-27T15:26:57.983Z,38.69
2018-05-27T15:29:31.398Z,38.66
2018-05-27T15:32:07.546Z,37.77
2018-05-27T15:34:41.491Z,37.97
2018-05-27T15:37:15.326Z,37.50
2018-05-27T15:39:50.167Z,36.39
2018-05-27T15:42:24.405Z,36.78
2018-05-27T15:44:55.677Z,35.38
2018-05-27T15:47:30.633Z,35.99
2018-05-27T15:50:04.898Z,36.73
2018-05-27T15:52:37.484Z,35.98
2018-05-27T15:55:13.200Z,35.71
2018-05-27T15:57:46.415Z,35.81
2018-05-27T16:00:20.757Z,36.05
2018-05-27T16:02:55.566Z,36.17
2018-05-27T16:05:26.041Z,36.08
2018-05-27T16:07:59.426Z,36.35
2018-05-27T16:10:31.437Z,36.54
2018-05-27T16:13:09.561Z,36.50
2018-05-27T16:18:20.348Z,37.13
2018-05-27T16:21:01.162Z,37.55
2018-05-27T16:23:33.176Z,37.65
2018-05-27T16:28:52.161Z,37.72
2018-05-27T16:31:34.728Z,38.01
2018-05-27T16:34:26.503Z,38.24
2018-05-27T16:37:02.839Z,38.61
2018-05-27T16:39:38.210Z,39.29
2018-05-27T16:42:14.072Z,40.21
2018-05-27T16:44:55.945Z,42.13
2018-05-27T16:47:31.302Z,42.96
2018-05-27T16:50:05.205Z,45.44
2018-05-27T16:52:47.758Z,45.50
2018-05-27T16:55:53.991Z,48.12
2018-05-27T16:58:33.841Z,47.83
2018-05-27T17:01:13.398Z,48.46
2018-05-27T17:04:05.290Z,48.86
2018-05-27T17:06:40.973Z,48.02
2018-05-27T17:09:13.917Z,49.29
2018-05-27T17:11:46.834Z,49.11
2018-05-27T17:14:25.537Z,50.66
2018-05-27T17:17:01.403Z,50.71
2018-05-27T17:19:38.199Z,50.50
2018-05-27T17:22:12.466Z,51.89
2018-05-27T17:24:55.205Z,51.81
2018-05-27T17:27:39.827Z,52.67
2018-05-27T17:30:21.803Z,51.30
2018-05-27T17:33:03.207Z,51.94
2018-05-27T17:35:35.157Z,51.38
2018-05-27T17:38:06.094Z,50.74
2018-05-27T17:40:48.564Z,51.13
2018-05-27T17:43:28.278Z,50.79
2018-05-27T17:46:05.007Z,49.93
2018-05-27T17:48:38.697Z,49.92
2018-05-27T17:51:25.443Z,49.41
2018-05-27T17:53:57.510Z,50.41
2018-05-27T17:56:28.917Z,50.70
2018-05-27T17:59:03.839Z,49.47
2018-05-27T18:01:42.602Z,49.37
2018-05-27T18:04:16.372Z,49.54
2018-05-27T18:06:46.994Z,49.04
2018-05-27T18:09:27.565Z,48.86
2018-05-27T18:12:03.509Z,48.58
2018-05-27T18:14:35.744Z,48.88
2018-05-27T18:17:10.486Z,48.64
2018-05-27T18:19:43.982Z,48.39
2018-05-27T18:22:16.392Z,48.07
2018-05-27T18:24:49.151Z,47.94
2018-05-27T18:27:35.901Z,47.39
2018-05-27T18:30:14.423Z,47.44
2018-05-27T18:32:45.576Z,47.23
2018-05-27T18:35:22.837Z,47.44
2018-05-27T18:38:00.430Z,46.95
2018-05-27T18:40:31.472Z,46.71
2018-05-27T18:43:04.835Z,46.43
2018-05-27T18:45:39.108Z,45.80
2018-05-27T18:51:06.055Z,45.68
2018-05-27T18:53:40.683Z,45.95
2018-05-27T18:56:16.789Z,46.52
2018-05-27T18:58:49.161Z,46.77
2018-05-27T19:01:21.048Z,46.62
2018-05-27T19:03:53.575Z,46.22
2018-05-27T19:06:34.197Z,46.32
2018-05-27T19:09:42.790Z,46.57
2018-05-27T19:12:14.735Z,47.02
2018-05-27T19:14:54.319Z,47.28
2018-05-27T19:17:34.948Z,47.30
2018-05-27T19:20:19.406Z,47.20
2018-05-27T19:22:55.238Z,47.20
2018-05-27T19:25:45.017Z,47.86
2018-05-27T19:28:26.269Z,47.98
2018-05-27T19:31:08.476Z,47.95
2018-05-27T19:33:51.034Z,48.20
2018-05-27T19:36:29.269Z,48.27
2018-05-27T19:39:07.927Z,48.00
2018-05-27T19:41:44.210Z,48.57
2018-05-27T19:47:07.367Z,49.49
2018-05-27T19:49:38.455Z,49.47
2018-05-27T19:52:09.852Z,51.57
2018-05-27T19:54:43.649Z,51.97
2018-05-27T19:57:21.483Z,50.67
2018-05-27T19:59:54.405Z,50.62
2018-05-27T20:02:25.982Z,50.36
2018-05-27T20:04:58.435Z,50.25
2018-05-27T20:07:45.634Z,49.88
2018-05-27T20:10:25.445Z,49.77
2018-05-27T20:12:56.238Z,49.44
2018-05-27T20:15:28.403Z,48.99
2018-05-27T20:18:11.226Z,48.75
2018-05-27T20:20:43.185Z,48.77
2018-05-27T20:23:30.561Z,48.41
2018-05-27T20:26:10.076Z,48.83
2018-05-27T20:28:46.334Z,48.56
2018-05-27T20:31:19.420Z,48.25
2018-05-27T20:33:53.563Z,48.34
2018-05-27T20:36:37.088Z,48.54
2018-05-27T20:42:51.823Z,50.44
2018-05-27T20:45:55.871Z,50.89
2018-05-27T20:48:27.411Z,51.28
2018-05-27T20:51:01.770Z,51.41
2018-05-27T20:53:36.485Z,51.84
2018-05-27T20:56:14.785Z,52.17
2018-05-27T20:58:45.344Z,52.17
2018-05-27T21:01:17.141Z,51.97
2018-05-27T21:03:47.747Z,52.08
2018-05-27T21:06:20.019Z,51.86
2018-05-27T21:08:50.857Z,51.71
2018-05-27T21:13:47.298Z,51.87
2018-05-27T21:16:21.062Z,51.60
2018-05-27T21:18:54.706Z,51.96
2018-05-27T21:21:33.523Z,52.14
2018-05-27T21:24:06.335Z,52.07
2018-05-27T21:26:55.176Z,51.92
2018-05-27T21:32:11.071Z,52.31
2018-05-27T21:34:41.839Z,51.86
2018-05-27T21:37:12.889Z,52.17
2018-05-27T21:39:44.115Z,52.11
2018-05-27T21:45:13.657Z,52.35
2018-05-27T21:47:49.184Z,52.37
2018-05-27T21:50:24.936Z,52.23
2018-05-27T21:52:56.302Z,52.02
2018-05-27T21:55:42.876Z,51.96
2018-05-27T21:58:15.831Z,52.02
2018-05-27T22:00:46.829Z,51.76
2018-05-27T22:03:18.365Z,51.74
2018-05-27T22:05:51.063Z,52.26
2018-05-27T22:11:17.224Z,54.48
2018-05-27T22:13:53.261Z,55.22
2018-05-27T22:16:27.047Z,56.08
2018-05-27T22:18:58.316Z,56.46
2018-05-27T22:21:38.576Z,55.90
2018-05-27T22:24:12.199Z,55.28
2018-05-27T22:26:46.003Z,55.52
2018-05-27T22:29:21.278Z,56.03
2018-05-27T22:31:55.670Z,56.20
2018-05-27T22:34:27.896Z,56.53
2018-05-27T22:37:09.589Z,56.29
2018-05-27T22:39:44.030Z,56.09
2018-05-27T22:42:23.742Z,56.47
2018-05-27T22:47:35.529Z,57.17
2018-05-27T22:50:06.724Z,56.88
2018-05-27T22:52:37.389Z,56.55
2018-05-27T22:55:14.541Z,56.77
2018-05-27T22:57:56.737Z,57.01
2018-05-27T23:00:30.738Z,56.72
2018-05-27T23:03:01.579Z,56.37
2018-05-27T23:05:33.520Z,56.26
2018-05-27T23:08:05.867Z,56.43
2018-05-27T23:10:40.326Z,56.56
2018-05-27T23:13:11.055Z,56.70
2018-05-27T23:15:42.050Z,57.56
2018-05-27T23:18:14.568Z,57.69
2018-05-27T23:20:54.825Z,58.17
2018-05-27T23:23:26.427Z,57.98
2018-05-27T23:25:59.809Z,58.10
2018-05-27T23:28:38.113Z,58.38
2018-05-27T23:31:09.348Z,58.08
2018-05-27T23:33:42.784Z,58.02
2018-05-27T23:36:14.762Z,58.15
2018-05-27T23:38:46.178Z,57.84
2018-05-27T23:41:16.746Z,58.30
2018-05-27T23:43:48.262Z,58.15
2018-05-27T23:46:20.021Z,58.06
2018-05-27T23:48:50.624Z,57.84
2018-05-27T23:51:21.443Z,57.98
2018-05-27T23:53:56.683Z,57.76
2018-05-27T23:56:29.544Z,57.87
2018-05-27T23:59:06.417Z,58.09
